sensor_id;sensor_type;location;lat;lon;timestamp;pressure;altitude;pressure_sealevel;temperature;humidity
22930;BME280;11630;42.660;23.292;2022-12-18T00:01:48;68458.14;;;8.35;100.00
22930;BME280;11630;42.660;23.292;2022-12-18T00:04:23;68473.91;;;8.54;100.00
22930;BME280;11630;42.660;23.292;2022-12-18T00:06:54;68441.06;;;8.23;100.00
22930;BME280;11630;42.660;23.292;2022-12-18T00:09:26;68419.60;;;8.02;100.00
22930;BME280;11630;42.660;23.292;2022-12-18T00:11:56;68415.55;;;7.99;100.00
22930;BME280;11630;42.660;23.292;2022-12-18T00:14:26;68391.38;;;7.73;100.00
22930;BME280;11630;42.660;23.292;2022-12-18T00:16:57;68404.13;;;7.89;100.00
22930;BME280;11630;42.660;23.292;2022-12-18T00:19:28;68384.59;;;7.66;100.00
22930;BME280;11630;42.660;23.292;2022-12-18T00:21:59;68388.93;;;7.72;100.00
22930;BME280;11630;42.660;23.292;2022-12-18T00:24:30;68384.31;;;7.67;100.00
22930;BME280;11630;42.660;23.292;2022-12-18T00:27:04;68382.42;;;7.66;100.00
22930;BME280;11630;42.660;23.292;2022-12-18T00:29:35;68372.91;;;7.54;100.00
22930;BME280;11630;42.660;23.292;2022-12-18T00:32:09;68379.98;;;7.65;100.00
22930;BME280;11630;42.660;23.292;2022-12-18T00:34:39;68389.23;;;7.76;100.00
22930;BME280;11630;42.660;23.292;2022-12-18T00:37:10;68393.55;;;7.75;100.00
22930;BME280;11630;42.660;23.292;2022-12-18T00:39:41;68414.46;;;8.01;100.00
22930;BME280;11630;42.660;23.292;2022-12-18T00:42:12;68390.58;;;7.76;100.00
22930;BME280;11630;42.660;23.292;2022-12-18T00:44:59;68402.77;;;7.86;100.00
22930;BME280;11630;42.660;23.292;2022-12-18T00:47:30;68389.77;;;7.79;100.00
22930;BME280;11630;42.660;23.292;2022-12-18T00:50:02;68384.34;;;7.72;100.00
22930;BME280;11630;42.660;23.292;2022-12-18T00:52:31;68386.22;;;7.70;100.00
22930;BME280;11630;42.660;23.292;2022-12-18T00:55:01;68371.86;;;7.58;100.00
22930;BME280;11630;42.660;23.292;2022-12-18T00:57:31;68357.73;;;7.45;100.00
22930;BME280;11630;42.660;23.292;2022-12-18T01:00:02;68347.69;;;7.32;100.00
22930;BME280;11630;42.660;23.292;2022-12-18T01:02:33;68344.73;;;7.36;100.00
22930;BME280;11630;42.660;23.292;2022-12-18T01:05:05;68345.84;;;7.39;100.00
22930;BME280;11630;42.660;23.292;2022-12-18T01:07:34;68324.13;;;7.14;100.00
22930;BME280;11630;42.660;23.292;2022-12-18T01:10:06;68310.31;;;7.03;100.00
22930;BME280;11630;42.660;23.292;2022-12-18T01:12:36;68330.08;;;7.20;100.00
22930;BME280;11630;42.660;23.292;2022-12-18T01:15:07;68324.66;;;7.15;100.00
22930;BME280;11630;42.660;23.292;2022-12-18T01:17:38;68333.08;;;7.24;100.00
22930;BME280;11630;42.660;23.292;2022-12-18T01:20:11;68325.23;;;7.18;100.00
22930;BME280;11630;42.660;23.292;2022-12-18T01:22:42;68309.44;;;6.93;100.00
22930;BME280;11630;42.660;23.292;2022-12-18T01:25:13;68317.59;;;7.06;100.00
22930;BME280;11630;42.660;23.292;2022-12-18T01:27:44;68289.42;;;6.83;100.00
22930;BME280;11630;42.660;23.292;2022-12-18T01:30:15;68294.01;;;6.83;100.00
22930;BME280;11630;42.660;23.292;2022-12-18T01:32:46;68275.34;;;6.70;100.00
22930;BME280;11630;42.660;23.292;2022-12-18T01:35:17;68281.02;;;6.76;100.00
22930;BME280;11630;42.660;23.292;2022-12-18T01:37:48;68277.52;;;6.74;100.00
22930;BME280;11630;42.660;23.292;2022-12-18T01:40:19;68310.83;;;6.98;100.00
22930;BME280;11630;42.660;23.292;2022-12-18T01:42:53;68296.75;;;6.90;100.00
22930;BME280;11630;42.660;23.292;2022-12-18T01:45:25;68304.87;;;6.95;100.00
22930;BME280;11630;42.660;23.292;2022-12-18T01:48:05;68307.05;;;7.00;100.00
22930;BME280;11630;42.660;23.292;2022-12-18T01:50:41;68250.92;;;6.45;100.00
22930;BME280;11630;42.660;23.292;2022-12-18T01:53:19;68242.56;;;6.41;100.00
22930;BME280;11630;42.660;23.292;2022-12-18T01:55:55;68272.38;;;6.71;100.00
22930;BME280;11630;42.660;23.292;2022-12-18T02:01:12;68242.53;;;6.38;100.00
22930;BME280;11630;42.660;23.292;2022-12-18T02:03:43;68219.25;;;6.19;100.00
22930;BME280;11630;42.660;23.292;2022-12-18T02:06:36;68229.27;;;6.27;100.00
22930;BME280;11630;42.660;23.292;2022-12-18T02:09:19;68246.86;;;6.40;100.00
22930;BME280;11630;42.660;23.292;2022-12-18T02:12:06;68223.87;;;6.25;100.00
22930;BME280;11630;42.660;23.292;2022-12-18T02:17:35;68233.59;;;6.31;100.00
22930;BME280;11630;42.660;23.292;2022-12-18T02:23:06;68263.41;;;6.59;100.00
22930;BME280;11630;42.660;23.292;2022-12-18T02:26:05;68247.97;;;6.46;100.00
22930;BME280;11630;42.660;23.292;2022-12-18T02:28:37;68234.68;;;6.32;100.00
22930;BME280;11630;42.660;23.292;2022-12-18T02:31:08;68229.79;;;6.25;100.00
22930;BME280;11630;42.660;23.292;2022-12-18T02:33:40;68225.16;;;6.15;100.00
22930;BME280;11630;42.660;23.292;2022-12-18T02:36:11;68236.32;;;6.34;100.00
22930;BME280;11630;42.660;23.292;2022-12-18T02:38:44;68253.95;;;6.54;100.00
22930;BME280;11630;42.660;23.292;2022-12-18T02:41:17;68229.80;;;6.28;100.00
22930;BME280;11630;42.660;23.292;2022-12-18T02:43:53;68249.31;;;6.46;100.00
22930;BME280;11630;42.660;23.292;2022-12-18T02:46:33;68248.50;;;6.46;100.00
22930;BME280;11630;42.660;23.292;2022-12-18T02:48:56;68248.49;;;6.44;100.00
22930;BME280;11630;42.660;23.292;2022-12-18T02:51:37;68252.84;;;6.50;100.00
22930;BME280;11630;42.660;23.292;2022-12-18T02:54:13;68257.98;;;6.51;100.00
22930;BME280;11630;42.660;23.292;2022-12-18T02:56:54;68274.78;;;6.69;100.00
22930;BME280;11630;42.660;23.292;2022-12-18T02:59:29;68229.27;;;6.27;100.00
22930;BME280;11630;42.660;23.292;2022-12-18T03:02:15;68216.80;;;6.16;100.00
22930;BME280;11630;42.660;23.292;2022-12-18T03:04:42;68206.78;;;6.06;100.00
22930;BME280;11630;42.660;23.292;2022-12-18T03:07:15;68185.66;;;5.89;100.00
22930;BME280;11630;42.660;23.292;2022-12-18T03:09:46;68219.81;;;6.22;100.00
22930;BME280;11630;42.660;23.292;2022-12-18T03:12:21;68245.00;;;6.44;100.00
22930;BME280;11630;42.660;23.292;2022-12-18T03:15:13;68239.57;;;6.39;100.00
22930;BME280;11630;42.660;23.292;2022-12-18T03:17:45;68221.70;;;6.25;100.00
22930;BME280;11630;42.660;23.292;2022-12-18T03:20:17;68236.33;;;6.36;100.00
22930;BME280;11630;42.660;23.292;2022-12-18T03:22:50;68214.11;;;6.16;100.00
22930;BME280;11630;42.660;23.292;2022-12-18T03:25:20;68203.83;;;6.07;100.00
22930;BME280;11630;42.660;23.292;2022-12-18T03:27:55;68197.86;;;6.01;100.00
22930;BME280;11630;42.660;23.292;2022-12-18T03:30:26;68187.84;;;5.91;100.00
22930;BME280;11630;42.660;23.292;2022-12-18T03:33:08;68198.39;;;6.02;100.00
22930;BME280;11630;42.660;23.292;2022-12-18T03:35:41;68213.33;;;6.19;100.00
22930;BME280;11630;42.660;23.292;2022-12-18T03:38:14;68224.66;;;6.24;100.00
22930;BME280;11630;42.660;23.292;2022-12-18T03:41:07;68217.89;;;6.17;100.00
22930;BME280;11630;42.660;23.292;2022-12-18T03:43:41;68223.31;;;6.24;100.00
22930;BME280;11630;42.660;23.292;2022-12-18T03:46:18;68185.41;;;5.90;100.00
22930;BME280;11630;42.660;23.292;2022-12-18T03:48:48;68174.56;;;5.80;100.00
22930;BME280;11630;42.660;23.292;2022-12-18T03:51:24;68164.00;;;5.71;100.00
22930;BME280;11630;42.660;23.292;2022-12-18T03:54:02;68162.91;;;5.68;100.00
22930;BME280;11630;42.660;23.292;2022-12-18T03:56:36;68158.03;;;5.66;100.00
22930;BME280;11630;42.660;23.292;2022-12-18T03:59:05;68172.91;;;5.76;100.00
22930;BME280;11630;42.660;23.292;2022-12-18T04:01:42;68167.52;;;5.73;100.00
22930;BME280;11630;42.660;23.292;2022-12-18T04:04:14;68171.06;;;5.78;100.00
22930;BME280;11630;42.660;23.292;2022-12-18T04:06:47;68178.91;;;5.84;100.00
22930;BME280;11630;42.660;23.292;2022-12-18T04:09:20;68169.39;;;5.74;100.00
22930;BME280;11630;42.660;23.292;2022-12-18T04:11:51;68173.76;;;5.78;100.00
22930;BME280;11630;42.660;23.292;2022-12-18T04:14:22;68161.55;;;5.68;100.00
22930;BME280;11630;42.660;23.292;2022-12-18T04:16:53;68156.95;;;5.65;100.00
22930;BME280;11630;42.660;23.292;2022-12-18T04:19:23;68161.80;;;5.64;100.00
22930;BME280;11630;42.660;23.292;2022-12-18T04:21:54;68140.95;;;5.46;100.00
22930;BME280;11630;42.660;23.292;2022-12-18T04:24:24;68155.31;;;5.58;100.00
22930;BME280;11630;42.660;23.292;2022-12-18T04:26:55;68149.88;;;5.53;100.00
22930;BME280;11630;42.660;23.292;2022-12-18T04:29:25;68147.22;;;5.56;100.00
22930;BME280;11630;42.660;23.292;2022-12-18T04:31:55;68164.51;;;5.67;100.00
22930;BME280;11630;42.660;23.292;2022-12-18T04:34:27;68154.50;;;5.61;100.00
22930;BME280;11630;42.660;23.292;2022-12-18T04:36:58;68133.67;;;5.41;100.00
22930;BME280;11630;42.660;23.292;2022-12-18T04:39:29;68134.21;;;5.44;100.00
22930;BME280;11630;42.660;23.292;2022-12-18T04:41:59;68159.62;;;5.60;100.00
22930;BME280;11630;42.660;23.292;2022-12-18T04:44:31;68139.08;;;5.46;100.00
22930;BME280;11630;42.660;23.292;2022-12-18T04:47:01;68146.91;;;5.52;100.00
22930;BME280;11630;42.660;23.292;2022-12-18T04:49:31;68120.14;;;5.31;100.00
22930;BME280;11630;42.660;23.292;2022-12-18T04:52:01;68125.27;;;5.32;100.00
22930;BME280;11630;42.660;23.292;2022-12-18T04:54:32;68154.98;;;5.52;100.00
22930;BME280;11630;42.660;23.292;2022-12-18T04:57:03;68131.47;;;5.34;100.00
22930;BME280;11630;42.660;23.292;2022-12-18T04:59:33;68123.92;;;5.32;100.00
22930;BME280;11630;42.660;23.292;2022-12-18T05:02:03;68136.36;;;5.41;100.00
22930;BME280;11630;42.660;23.292;2022-12-18T05:04:34;68132.05;;;5.42;100.00
22930;BME280;11630;42.660;23.292;2022-12-18T05:07:05;68137.20;;;5.45;100.00
22930;BME280;11630;42.660;23.292;2022-12-18T05:09:36;68138.80;;;5.44;100.00
22930;BME280;11630;42.660;23.292;2022-12-18T05:12:07;68152.06;;;5.58;100.00
22930;BME280;11630;42.660;23.292;2022-12-18T05:14:37;68140.42;;;5.46;100.00
22930;BME280;11630;42.660;23.292;2022-12-18T05:17:08;68163.96;;;5.64;100.00
22930;BME280;11630;42.660;23.292;2022-12-18T05:19:39;68151.53;;;5.57;100.00
22930;BME280;11630;42.660;23.292;2022-12-18T05:22:09;68161.55;;;5.65;100.00
22930;BME280;11630;42.660;23.292;2022-12-18T05:24:40;68191.63;;;5.94;100.00
22930;BME280;11630;42.660;23.292;2022-12-18T05:27:11;68202.73;;;6.03;100.00
22930;BME280;11630;42.660;23.292;2022-12-18T05:29:43;68140.16;;;5.47;100.00
22930;BME280;11630;42.660;23.292;2022-12-18T05:32:13;68150.19;;;5.57;100.00
22930;BME280;11630;42.660;23.292;2022-12-18T05:34:45;68146.91;;;5.52;100.00
22930;BME280;11630;42.660;23.292;2022-12-18T05:37:16;68152.56;;;5.51;100.00
22930;BME280;11630;42.660;23.292;2022-12-18T05:39:46;68149.36;;;5.55;100.00
22930;BME280;11630;42.660;23.292;2022-12-18T05:42:17;68164.77;;;5.66;100.00
22930;BME280;11630;42.660;23.292;2022-12-18T05:44:47;68150.17;;;5.55;100.00
22930;BME280;11630;42.660;23.292;2022-12-18T05:47:19;68171.59;;;5.78;100.00
22930;BME280;11630;42.660;23.292;2022-12-18T05:49:49;68156.92;;;5.60;100.00
22930;BME280;11630;42.660;23.292;2022-12-18T05:52:20;68120.97;;;5.33;100.00
22930;BME280;11630;42.660;23.292;2022-12-18T05:54:51;68127.70;;;5.33;100.00
22930;BME280;11630;42.660;23.292;2022-12-18T05:57:22;68122.02;;;5.29;100.00
22930;BME280;11630;42.660;23.292;2022-12-18T05:59:53;68126.90;;;5.36;100.00
22930;BME280;11630;42.660;23.292;2022-12-18T06:02:23;68120.14;;;5.31;100.00
22930;BME280;11630;42.660;23.292;2022-12-18T06:04:54;68108.51;;;5.19;100.00
22930;BME280;11630;42.660;23.292;2022-12-18T06:07:25;68118.22;;;5.26;100.00
22930;BME280;11630;42.660;23.292;2022-12-18T06:09:56;68122.02;;;5.29;100.00
22930;BME280;11630;42.660;23.292;2022-12-18T06:12:27;68118.23;;;5.28;100.00
22930;BME280;11630;42.660;23.292;2022-12-18T06:14:58;68110.92;;;5.20;100.00
22930;BME280;11630;42.660;23.292;2022-12-18T06:17:30;68121.22;;;5.30;100.00
22930;BME280;11630;42.660;23.292;2022-12-18T06:20:00;68100.37;;;5.09;100.00
22930;BME280;11630;42.660;23.292;2022-12-18T06:22:32;68112.27;;;5.20;100.00
22930;BME280;11630;42.660;23.292;2022-12-18T06:25:02;68103.34;;;5.13;100.00
22930;BME280;11630;42.660;23.292;2022-12-18T06:27:33;68114.17;;;5.23;100.00
22930;BME280;11630;42.660;23.292;2022-12-18T06:30:05;68121.75;;;5.30;100.00
22930;BME280;11630;42.660;23.292;2022-12-18T06:32:36;68111.73;;;5.20;100.00
22930;BME280;11630;42.660;23.292;2022-12-18T06:35:07;68100.69;;;5.16;100.00
22930;BME280;11630;42.660;23.292;2022-12-18T06:37:38;68093.62;;;5.04;100.00
22930;BME280;11630;42.660;23.292;2022-12-18T06:40:09;68083.61;;;4.96;100.00
22930;BME280;11630;42.660;23.292;2022-12-18T06:42:40;68099.00;;;5.04;100.00
22930;BME280;11630;42.660;23.292;2022-12-18T06:45:11;68096.85;;;5.07;100.00
22930;BME280;11630;42.660;23.292;2022-12-18T06:47:45;68093.32;;;5.03;100.00
22930;BME280;11630;42.660;23.292;2022-12-18T06:50:16;68100.63;;;5.08;100.00
22930;BME280;11630;42.660;23.292;2022-12-18T06:52:47;68105.25;;;5.16;100.00
22930;BME280;11630;42.660;23.292;2022-12-18T06:55:18;68110.66;;;5.21;100.00
22930;BME280;11630;42.660;23.292;2022-12-18T06:57:49;68126.09;;;5.34;100.00
22930;BME280;11630;42.660;23.292;2022-12-18T07:00:20;68116.05;;;5.24;100.00
22930;BME280;11630;42.660;23.292;2022-12-18T07:02:51;68116.89;;;5.28;100.00
22930;BME280;11630;42.660;23.292;2022-12-18T07:05:22;68089.00;;;4.99;100.00
22930;BME280;11630;42.660;23.292;2022-12-18T07:07:53;68097.38;;;5.05;100.00
22930;BME280;11630;42.660;23.292;2022-12-18T07:10:23;68114.42;;;5.20;100.00
22930;BME280;11630;42.660;23.292;2022-12-18T07:12:56;68116.59;;;5.22;100.00
22930;BME280;11630;42.660;23.292;2022-12-18T07:15:27;68122.02;;;5.29;100.00
22930;BME280;11630;42.660;23.292;2022-12-18T07:17:58;68123.09;;;5.30;100.00
22930;BME280;11630;42.660;23.292;2022-12-18T07:20:28;68108.23;;;5.20;100.00
22930;BME280;11630;42.660;23.292;2022-12-18T07:23:01;68119.58;;;5.28;100.00
22930;BME280;11630;42.660;23.292;2022-12-18T07:25:39;68117.70;;;5.28;100.00
22930;BME280;11630;42.660;23.292;2022-12-18T07:28:08;68117.69;;;5.25;100.00
22930;BME280;11630;42.660;23.292;2022-12-18T07:30:39;68114.73;;;5.26;100.00
22930;BME280;11630;42.660;23.292;2022-12-18T07:33:10;68121.73;;;5.28;100.00
22930;BME280;11630;42.660;23.292;2022-12-18T07:35:41;68115.00;;;5.25;100.00
22930;BME280;11630;42.660;23.292;2022-12-18T07:38:11;68119.05;;;5.28;100.00
22930;BME280;11630;42.660;23.292;2022-12-18T07:40:42;68113.91;;;5.24;100.00
22930;BME280;11630;42.660;23.292;2022-12-18T07:43:12;68130.41;;;5.38;100.00
22930;BME280;11630;42.660;23.292;2022-12-18T07:45:43;68122.86;;;5.36;100.00
22930;BME280;11630;42.660;23.292;2022-12-18T07:48:14;68124.44;;;5.30;100.00
22930;BME280;11630;42.660;23.292;2022-12-18T07:50:44;68108.51;;;5.19;100.00
22930;BME280;11630;42.660;23.292;2022-12-18T07:53:16;68123.66;;;5.33;100.00
22930;BME280;11630;42.660;23.292;2022-12-18T07:55:47;68136.36;;;5.41;100.00
22930;BME280;11630;42.660;23.292;2022-12-18T07:58:18;68154.23;;;5.60;100.00
22930;BME280;11630;42.660;23.292;2022-12-18T08:00:49;68153.15;;;5.59;100.00
22930;BME280;11630;42.660;23.292;2022-12-18T08:03:20;68165.07;;;5.70;100.00
22930;BME280;11630;42.660;23.292;2022-12-18T08:05:50;68167.79;;;5.75;100.00
22930;BME280;11630;42.660;23.292;2022-12-18T08:08:21;68180.52;;;5.85;100.00
22930;BME280;11630;42.660;23.292;2022-12-18T08:10:52;68148.58;;;5.58;100.00
22930;BME280;11630;42.660;23.292;2022-12-18T08:13:23;68154.49;;;5.59;100.00
22930;BME280;11630;42.660;23.292;2022-12-18T08:16:05;68181.05;;;5.83;100.00
22930;BME280;11630;42.660;23.292;2022-12-18T08:18:36;68158.27;;;5.60;100.00
22930;BME280;11630;42.660;23.292;2022-12-18T08:21:12;68157.45;;;5.60;100.00
22930;BME280;11630;42.660;23.292;2022-12-18T08:23:43;68115.00;;;5.25;100.00
22930;BME280;11630;42.660;23.292;2022-12-18T08:26:13;68132.84;;;5.39;100.00
22930;BME280;11630;42.660;23.292;2022-12-18T08:28:44;68148.28;;;5.57;100.00
22930;BME280;11630;42.660;23.292;2022-12-18T08:31:14;68153.14;;;5.56;100.00
22930;BME280;11630;42.660;23.292;2022-12-18T08:33:44;68118.22;;;5.26;100.00
22930;BME280;11630;42.660;23.292;2022-12-18T08:36:16;68108.23;;;5.20;100.00
22930;BME280;11630;42.660;23.292;2022-12-18T08:38:47;68118.80;;;5.31;100.00
22930;BME280;11630;42.660;23.292;2022-12-18T08:41:19;68158.84;;;5.65;100.00
22930;BME280;11630;42.660;23.292;2022-12-18T08:43:52;68130.16;;;5.39;100.00
22930;BME280;11630;42.660;23.292;2022-12-18T08:46:41;68167.50;;;5.71;100.00
22930;BME280;11630;42.660;23.292;2022-12-18T08:49:12;68113.61;;;5.20;100.00
22930;BME280;11630;42.660;23.292;2022-12-18T08:51:43;68137.16;;;5.43;100.00
22930;BME280;11630;42.660;23.292;2022-12-18T08:54:14;68137.70;;;5.41;100.00
22930;BME280;11630;42.660;23.292;2022-12-18T08:56:45;68130.95;;;5.38;100.00
22930;BME280;11630;42.660;23.292;2022-12-18T08:59:16;68148.56;;;5.56;100.00
22930;BME280;11630;42.660;23.292;2022-12-18T09:01:47;68135.82;;;5.43;100.00
22930;BME280;11630;42.660;23.292;2022-12-18T09:04:17;68161.02;;;5.67;100.00
22930;BME280;11630;42.660;23.292;2022-12-18T09:06:48;68153.41;;;5.58;100.00
22930;BME280;11630;42.660;23.292;2022-12-18T09:09:19;68147.17;;;5.51;100.00
22930;BME280;11630;42.660;23.292;2022-12-18T09:11:51;68109.85;;;5.19;100.00
22930;BME280;11630;42.660;23.292;2022-12-18T09:14:21;68096.06;;;5.08;100.00
22930;BME280;11630;42.660;23.292;2022-12-18T09:16:52;68083.90;;;5.00;100.00
22930;BME280;11630;42.660;23.292;2022-12-18T09:19:23;68130.41;;;5.35;100.00
22930;BME280;11630;42.660;23.292;2022-12-18T09:21:54;68122.56;;;5.30;100.00
22930;BME280;11630;42.660;23.292;2022-12-18T09:24:25;68122.56;;;5.30;100.00
22930;BME280;11630;42.660;23.292;2022-12-18T09:26:56;68155.06;;;5.62;100.00
22930;BME280;11630;42.660;23.292;2022-12-18T09:29:27;68151.52;;;5.55;100.00
22930;BME280;11630;42.660;23.292;2022-12-18T09:31:57;68140.15;;;5.44;100.00
22930;BME280;11630;42.660;23.292;2022-12-18T09:34:27;68171.00;;;5.73;100.00
22930;BME280;11630;42.660;23.292;2022-12-18T09:36:58;68139.59;;;5.44;100.00
22930;BME280;11630;42.660;23.292;2022-12-18T09:39:29;68111.73;;;5.20;100.00
22930;BME280;11630;42.660;23.292;2022-12-18T09:42:00;68137.70;;;5.41;100.00
22930;BME280;11630;42.660;23.292;2022-12-18T09:44:41;68125.28;;;5.34;100.00
22930;BME280;11630;42.660;23.292;2022-12-18T09:49:55;68132.58;;;5.40;100.00
22930;BME280;11630;42.660;23.292;2022-12-18T09:52:41;68129.84;;;5.35;100.00
22930;BME280;11630;42.660;23.292;2022-12-18T09:58:02;68192.98;;;5.97;100.00
22930;BME280;11630;42.660;23.292;2022-12-18T10:00:31;68218.16;;;6.18;100.00
22930;BME280;11630;42.660;23.292;2022-12-18T10:03:08;68198.39;;;6.02;100.00
22930;BME280;11630;42.660;23.292;2022-12-18T10:05:56;68237.36;;;6.30;100.00
22930;BME280;11630;42.660;23.292;2022-12-18T10:11:38;68171.80;;;5.70;100.00
22930;BME280;11630;42.660;23.292;2022-12-18T10:27:44;68208.16;;;6.13;100.00
22930;BME280;11630;42.660;23.292;2022-12-18T10:30:17;68197.34;;;6.03;100.00
22930;BME280;11630;42.660;23.292;2022-12-18T10:32:47;68197.08;;;6.04;100.00
22930;BME280;11630;42.660;23.292;2022-12-18T10:35:26;68172.13;;;5.76;100.00
22930;BME280;11630;42.660;23.292;2022-12-18T10:41:02;68167.77;;;5.70;100.00
22930;BME280;11630;42.660;23.292;2022-12-18T10:43:37;68166.96;;;5.73;100.00
22930;BME280;11630;42.660;23.292;2022-12-18T10:46:15;68167.53;;;5.76;100.00
22930;BME280;11630;42.660;23.292;2022-12-18T10:48:54;68134.51;;;5.45;100.00
22930;BME280;11630;42.660;23.292;2022-12-18T10:51:31;68106.03;;;5.13;100.00
22930;BME280;11630;42.660;23.292;2022-12-18T10:54:24;68099.84;;;5.09;100.00
22930;BME280;11630;42.660;23.292;2022-12-18T10:56:51;68119.32;;;5.29;100.00
22930;BME280;11630;42.660;23.292;2022-12-18T10:59:22;68135.02;;;5.41;100.00
22930;BME280;11630;42.660;23.292;2022-12-18T11:01:57;68160.19;;;5.63;100.00
22930;BME280;11630;42.660;23.292;2022-12-18T11:04:29;68133.12;;;5.40;100.00
22930;BME280;11630;42.660;23.292;2022-12-18T11:07:04;68140.16;;;5.47;100.00
22930;BME280;11630;42.660;23.292;2022-12-18T11:09:39;68149.91;;;5.56;100.00
22930;BME280;11630;42.660;23.292;2022-12-18T11:12:20;68141.51;;;5.47;100.00
22930;BME280;11630;42.660;23.292;2022-12-18T11:14:52;68155.32;;;5.61;100.00
22930;BME280;11630;42.660;23.292;2022-12-18T11:17:34;68162.34;;;5.65;100.00
22930;BME280;11630;42.660;23.292;2022-12-18T11:23:03;68114.17;;;5.23;100.00
22930;BME280;11630;42.660;23.292;2022-12-18T11:25:29;68141.51;;;5.47;100.00
22930;BME280;11630;42.660;23.292;2022-12-18T11:28:04;68120.41;;;5.30;100.00
22930;BME280;11630;42.660;23.292;2022-12-18T11:30:35;68136.36;;;5.41;100.00
22930;BME280;11630;42.660;23.292;2022-12-18T11:33:17;68141.27;;;5.50;100.00
22930;BME280;11630;42.660;23.292;2022-12-18T11:35:51;68130.67;;;5.37;100.00
22930;BME280;11630;42.660;23.292;2022-12-18T11:41:47;68125.28;;;5.34;100.00
22930;BME280;11630;42.660;23.292;2022-12-18T11:43:53;68125.53;;;5.31;100.00
22930;BME280;11630;42.660;23.292;2022-12-18T11:46:32;68109.86;;;5.22;100.00
22930;BME280;11630;42.660;23.292;2022-12-18T11:49:07;68109.03;;;5.17;100.00
22930;BME280;11630;42.660;23.292;2022-12-18T11:51:38;68124.71;;;5.31;100.00
22930;BME280;11630;42.660;23.292;2022-12-18T11:54:14;68119.32;;;5.29;100.00
22930;BME280;11630;42.660;23.292;2022-12-18T12:02:38;68104.73;;;5.18;100.00
22930;BME280;11630;42.660;23.292;2022-12-18T12:13:38;68117.43;;;5.26;100.00
22930;BME280;11630;42.660;23.292;2022-12-18T12:21:49;68113.34;;;5.21;100.00
22930;BME280;11630;42.660;23.292;2022-12-18T12:24:37;68128.23;;;5.33;100.00
22930;BME280;11630;42.660;23.292;2022-12-18T12:30:14;68129.88;;;5.37;100.00
22930;BME280;11630;42.660;23.292;2022-12-18T12:40:52;68158.55;;;5.61;100.00
22930;BME280;11630;42.660;23.292;2022-12-18T12:43:25;68164.52;;;5.69;100.00
22930;BME280;11630;42.660;23.292;2022-12-18T12:46:04;68152.33;;;5.57;100.00
22930;BME280;11630;42.660;23.292;2022-12-18T12:48:48;68146.91;;;5.49;100.00
22930;BME280;11630;42.660;23.292;2022-12-18T12:51:23;68163.72;;;5.67;100.00
22930;BME280;11630;42.660;23.292;2022-12-18T12:53:55;68161.27;;;5.64;100.00
22930;BME280;11630;42.660;23.292;2022-12-18T12:56:32;68155.58;;;5.60;100.00
22930;BME280;11630;42.660;23.292;2022-12-18T12:59:13;68150.98;;;5.57;100.00
22930;BME280;11630;42.660;23.292;2022-12-18T13:04:50;68163.42;;;5.66;100.00
22930;BME280;11630;42.660;23.292;2022-12-18T13:07:47;68154.75;;;5.58;100.00
22930;BME280;11630;42.660;23.292;2022-12-18T13:10:25;68167.50;;;5.71;100.00
22930;BME280;11630;42.660;23.292;2022-12-18T13:12:59;68168.38;;;5.78;100.00
22930;BME280;11630;42.660;23.292;2022-12-18T13:18:24;68216.27;;;6.15;100.00
22930;BME280;11630;42.660;23.292;2022-12-18T13:23:40;68197.34;;;6.06;100.00
22930;BME280;11630;42.660;23.292;2022-12-18T13:28:52;68183.49;;;5.87;100.00
22930;BME280;11630;42.660;23.292;2022-12-18T13:34:27;68174.83;;;5.79;100.00
22930;BME280;11630;42.660;23.292;2022-12-18T13:37:52;68174.02;;;5.77;100.00
22930;BME280;11630;42.660;23.292;2022-12-18T13:39:56;68148.56;;;5.56;100.00
22930;BME280;11630;42.660;23.292;2022-12-18T13:42:40;68149.61;;;5.52;100.00
22930;BME280;11630;42.660;23.292;2022-12-18T13:45:49;68132.61;;;5.45;100.00
22930;BME280;11630;42.660;23.292;2022-12-18T13:48:22;68162.34;;;5.65;100.00
22930;BME280;11630;42.660;23.292;2022-12-18T13:50:58;68144.22;;;5.52;100.00
22930;BME280;11630;42.660;23.292;2022-12-18T13:53:30;68153.42;;;5.60;100.00
22930;BME280;11630;42.660;23.292;2022-12-18T13:56:01;68139.08;;;5.46;100.00
22930;BME280;11630;42.660;23.292;2022-12-18T13:58:32;68129.08;;;5.40;100.00
22930;BME280;11630;42.660;23.292;2022-12-18T14:01:02;68149.36;;;5.55;100.00
22930;BME280;11630;42.660;23.292;2022-12-18T14:03:33;68135.30;;;5.45;100.00
22930;BME280;11630;42.660;23.292;2022-12-18T14:06:05;68156.67;;;5.61;100.00
22930;BME280;11630;42.660;23.292;2022-12-18T14:08:38;68156.10;;;5.58;100.00
22930;BME280;11630;42.660;23.292;2022-12-18T14:11:18;68163.16;;;5.67;100.00
22930;BME280;11630;42.660;23.292;2022-12-18T14:13:41;68141.27;;;5.50;100.00
22930;BME280;11630;42.660;23.292;2022-12-18T14:16:14;68134.45;;;5.38;100.00
22930;BME280;11630;42.660;23.292;2022-12-18T14:18:57;68127.72;;;5.38;100.00
22930;BME280;11630;42.660;23.292;2022-12-18T14:21:28;68119.86;;;5.27;100.00
22930;BME280;11630;42.660;23.292;2022-12-18T14:24:17;68129.59;;;5.36;100.00
22930;BME280;11630;42.660;23.292;2022-12-18T14:26:49;68125.81;;;5.35;100.00
22930;BME280;11630;42.660;23.292;2022-12-18T14:29:30;68143.68;;;5.49;100.00
22930;BME280;11630;42.660;23.292;2022-12-18T14:34:39;68170.72;;;5.69;100.00
22930;BME280;11630;42.660;23.292;2022-12-18T14:37:11;68158.58;;;5.64;100.00
22930;BME280;11630;42.660;23.292;2022-12-18T14:40:02;68142.62;;;5.53;100.00
22930;BME280;11630;42.660;23.292;2022-12-18T14:42:34;68142.04;;;5.47;100.00
22930;BME280;11630;42.660;23.292;2022-12-18T14:45:39;68150.19;;;5.57;100.00
22930;BME280;11630;42.660;23.292;2022-12-18T14:50:45;68160.73;;;5.66;100.00
22930;BME280;11630;42.660;23.292;2022-12-18T14:53:21;68163.44;;;5.68;100.00